sensor_id;sensor_type;location;lat;lon;timestamp;pressure;altitude;pressure_sealevel;temperature;humidity
45621;BME280;31345;51.522;10.702;2023-05-01T00:01:27;99495.03;;;2.86;100.00
45621;BME280;31345;51.522;10.702;2023-05-01T00:04:00;99496.94;;;2.79;100.00
45621;BME280;31345;51.522;10.702;2023-05-01T00:06:27;99494.56;;;3.03;100.00
45621;BME280;31345;51.522;10.702;2023-05-01T00:09:01;99487.41;;;3.13;100.00
45621;BME280;31345;51.522;10.702;2023-05-01T00:11:34;99487.25;;;3.17;100.00
45621;BME280;31345;51.522;10.702;2023-05-01T00:14:02;99487.25;;;3.48;100.00
45621;BME280;31345;51.522;10.702;2023-05-01T00:16:35;99477.81;;;3.74;100.00
45621;BME280;31345;51.522;10.702;2023-05-01T00:19:03;99479.41;;;3.78;100.00
45621;BME280;31345;51.522;10.702;2023-05-01T00:21:35;99479.63;;;3.43;100.00
45621;BME280;31345;51.522;10.702;2023-05-01T00:24:05;99477.13;;;2.78;100.00
45621;BME280;31345;51.522;10.702;2023-05-01T00:26:32;99483.66;;;2.60;100.00
45621;BME280;31345;51.522;10.702;2023-05-01T00:29:05;99478.25;;;2.69;100.00
45621;BME280;31345;51.522;10.702;2023-05-01T00:31:38;99477.97;;;2.48;100.00
45621;BME280;31345;51.522;10.702;2023-05-01T00:34:06;99467.66;;;2.78;100.00
45621;BME280;31345;51.522;10.702;2023-05-01T00:36:40;99470.19;;;2.82;100.00
45621;BME280;31345;51.522;10.702;2023-05-01T00:39:13;99460.81;;;3.08;100.00
45621;BME280;31345;51.522;10.702;2023-05-01T00:41:47;99465.06;;;2.80;100.00
45621;BME280;31345;51.522;10.702;2023-05-01T00:44:20;99464.06;;;2.52;100.00
45621;BME280;31345;51.522;10.702;2023-05-01T00:46:53;99459.09;;;2.45;100.00
45621;BME280;31345;51.522;10.702;2023-05-01T00:49:21;99454.53;;;2.55;100.00
45621;BME280;31345;51.522;10.702;2023-05-01T00:51:50;99452.47;;;2.68;100.00
45621;BME280;31345;51.522;10.702;2023-05-01T00:54:26;99446.59;;;2.29;100.00
45621;BME280;31345;51.522;10.702;2023-05-01T00:56:59;99445.31;;;2.12;100.00
45621;BME280;31345;51.522;10.702;2023-05-01T00:59:32;99440.25;;;2.43;100.00
45621;BME280;31345;51.522;10.702;2023-05-01T01:02:04;99436.13;;;2.35;100.00
45621;BME280;31345;51.522;10.702;2023-05-01T01:04:37;99435.75;;;2.16;100.00
45621;BME280;31345;51.522;10.702;2023-05-01T01:07:13;99432.16;;;2.22;100.00
45621;BME280;31345;51.522;10.702;2023-05-01T01:10:02;99431.19;;;2.26;100.00
45621;BME280;31345;51.522;10.702;2023-05-01T01:12:41;99427.34;;;2.08;100.00
45621;BME280;31345;51.522;10.702;2023-05-01T01:15:22;99423.69;;;2.17;100.00
45621;BME280;31345;51.522;10.702;2023-05-01T01:18:01;99427.78;;;1.92;100.00
45621;BME280;31345;51.522;10.702;2023-05-01T01:20:43;99425.22;;;1.91;100.00
45621;BME280;31345;51.522;10.702;2023-05-01T01:23:41;99418.19;;;1.97;100.00
45621;BME280;31345;51.522;10.702;2023-05-01T01:26:22;99412.50;;;2.18;100.00
45621;BME280;31345;51.522;10.702;2023-05-01T01:29:09;99406.22;;;1.95;100.00
45621;BME280;31345;51.522;10.702;2023-05-01T01:31:56;99407.06;;;1.94;100.00
45621;BME280;31345;51.522;10.702;2023-05-01T01:34:35;99405.50;;;1.88;100.00
45621;BME280;31345;51.522;10.702;2023-05-01T01:37:10;99403.47;;;2.01;100.00
45621;BME280;31345;51.522;10.702;2023-05-01T01:39:44;99399.22;;;1.98;100.00
45621;BME280;31345;51.522;10.702;2023-05-01T01:42:15;99393.53;;;1.85;100.00
45621;BME280;31345;51.522;10.702;2023-05-01T01:44:50;99397.63;;;1.94;100.00
45621;BME280;31345;51.522;10.702;2023-05-01T01:47:27;99395.53;;;2.09;100.00
45621;BME280;31345;51.522;10.702;2023-05-01T01:50:05;99394.97;;;2.62;100.00
45621;BME280;31345;51.522;10.702;2023-05-01T01:52:36;99388.56;;;2.12;100.00
45621;BME280;31345;51.522;10.702;2023-05-01T01:55:12;99383.38;;;1.79;100.00
45621;BME280;31345;51.522;10.702;2023-05-01T01:57:45;99392.91;;;2.44;100.00
45621;BME280;31345;51.522;10.702;2023-05-01T02:00:20;99394.22;;;2.27;100.00
45621;BME280;31345;51.522;10.702;2023-05-01T02:02:57;99388.31;;;1.88;100.00
45621;BME280;31345;51.522;10.702;2023-05-01T02:05:34;99386.75;;;1.81;100.00
45621;BME280;31345;51.522;10.702;2023-05-01T02:08:07;99383.06;;;1.92;100.00
45621;BME280;31345;51.522;10.702;2023-05-01T02:10:37;99378.06;;;1.85;100.00
45621;BME280;31345;51.522;10.702;2023-05-01T02:13:12;99369.41;;;1.88;100.00
45621;BME280;31345;51.522;10.702;2023-05-01T02:15:46;99371.06;;;2.24;100.00
45621;BME280;31345;51.522;10.702;2023-05-01T02:18:20;99372.59;;;2.31;100.00
45621;BME280;31345;51.522;10.702;2023-05-01T02:20:49;99365.59;;;2.03;100.00
45621;BME280;31345;51.522;10.702;2023-05-01T02:23:23;99367.50;;;1.96;100.00
45621;BME280;31345;51.522;10.702;2023-05-01T02:25:52;99365.72;;;1.98;100.00
45621;BME280;31345;51.522;10.702;2023-05-01T02:28:26;99355.22;;;1.71;100.00
45621;BME280;31345;51.522;10.702;2023-05-01T02:30:56;99349.59;;;1.55;100.00
45621;BME280;31345;51.522;10.702;2023-05-01T02:33:28;99351.59;;;1.79;100.00
45621;BME280;31345;51.522;10.702;2023-05-01T02:35:58;99355.00;;;1.81;100.00
45621;BME280;31345;51.522;10.702;2023-05-01T02:38:31;99347.41;;;2.08;100.00
45621;BME280;31345;51.522;10.702;2023-05-01T02:41:05;99345.75;;;2.38;100.00
45621;BME280;31345;51.522;10.702;2023-05-01T02:43:40;99342.75;;;1.89;100.00
45621;BME280;31345;51.522;10.702;2023-05-01T02:46:16;99338.22;;;2.29;100.00
45621;BME280;31345;51.522;10.702;2023-05-01T02:48:50;99339.03;;;1.99;100.00
45621;BME280;31345;51.522;10.702;2023-05-01T02:51:25;99331.00;;;1.77;100.00
45621;BME280;31345;51.522;10.702;2023-05-01T02:53:54;99329.81;;;1.56;100.00
45621;BME280;31345;51.522;10.702;2023-05-01T02:56:24;99331.50;;;1.58;100.00
45621;BME280;31345;51.522;10.702;2023-05-01T02:58:58;99320.94;;;2.01;100.00
45621;BME280;31345;51.522;10.702;2023-05-01T03:01:26;99319.59;;;2.19;100.00
45621;BME280;31345;51.522;10.702;2023-05-01T03:03:59;99321.72;;;2.05;100.00
45621;BME280;31345;51.522;10.702;2023-05-01T03:06:28;99309.59;;;1.75;100.00
45621;BME280;31345;51.522;10.702;2023-05-01T03:09:01;99316.69;;;1.67;100.00
45621;BME280;31345;51.522;10.702;2023-05-01T03:11:28;99303.47;;;1.79;100.00
45621;BME280;31345;51.522;10.702;2023-05-01T03:13:56;99305.25;;;1.75;100.00
45621;BME280;31345;51.522;10.702;2023-05-01T03:16:28;99300.97;;;2.08;100.00
45621;BME280;31345;51.522;10.702;2023-05-01T03:19:01;99301.34;;;1.94;100.00
45621;BME280;31345;51.522;10.702;2023-05-01T03:21:35;99296.75;;;1.73;100.00
45621;BME280;31345;51.522;10.702;2023-05-01T03:24:03;99291.94;;;1.93;100.00
45621;BME280;31345;51.522;10.702;2023-05-01T03:26:31;99285.28;;;1.84;100.00
45621;BME280;31345;51.522;10.702;2023-05-01T03:29:04;99289.78;;;1.75;100.00
45621;BME280;31345;51.522;10.702;2023-05-01T03:31:32;99290.59;;;1.79;100.00
45621;BME280;31345;51.522;10.702;2023-05-01T03:34:04;99289.16;;;1.67;100.00
45621;BME280;31345;51.522;10.702;2023-05-01T03:36:39;99286.44;;;2.05;100.00
45621;BME280;31345;51.522;10.702;2023-05-01T03:39:06;99279.44;;;1.77;100.00
45621;BME280;31345;51.522;10.702;2023-05-01T03:41:58;99281.03;;;1.83;100.00
45621;BME280;31345;51.522;10.702;2023-05-01T03:44:34;99288.38;;;1.65;100.00
45621;BME280;31345;51.522;10.702;2023-05-01T03:47:07;99284.53;;;1.80;100.00
45621;BME280;31345;51.522;10.702;2023-05-01T03:49:39;99284.31;;;2.20;100.00
45621;BME280;31345;51.522;10.702;2023-05-01T03:52:15;99273.88;;;2.55;100.00
45621;BME280;31345;51.522;10.702;2023-05-01T03:54:49;99275.16;;;2.39;100.00
45621;BME280;31345;51.522;10.702;2023-05-01T03:57:27;99271.91;;;2.03;100.00
45621;BME280;31345;51.522;10.702;2023-05-01T03:59:56;99279.72;;;1.99;100.00
45621;BME280;31345;51.522;10.702;2023-05-01T04:02:24;99274.34;;;2.07;100.00
45621;BME280;31345;51.522;10.702;2023-05-01T04:04:57;99268.63;;;2.27;100.00
45621;BME280;31345;51.522;10.702;2023-05-01T04:07:33;99267.59;;;2.03;100.00
45621;BME280;31345;51.522;10.702;2023-05-01T04:10:06;99265.44;;;1.87;100.00
45621;BME280;31345;51.522;10.702;2023-05-01T04:12:39;99263.38;;;2.00;100.00
45621;BME280;31345;51.522;10.702;2023-05-01T04:15:12;99263.06;;;2.11;100.00
45621;BME280;31345;51.522;10.702;2023-05-01T04:17:44;99266.38;;;2.15;100.00
45621;BME280;31345;51.522;10.702;2023-05-01T04:20:13;99262.81;;;1.89;100.00
45621;BME280;31345;51.522;10.702;2023-05-01T04:22:44;99258.81;;;1.77;100.00
45621;BME280;31345;51.522;10.702;2023-05-01T04:25:17;99257.59;;;2.22;100.00
45621;BME280;31345;51.522;10.702;2023-05-01T04:27:47;99255.53;;;2.34;100.00
45621;BME280;31345;51.522;10.702;2023-05-01T04:30:20;99256.66;;;2.25;100.00
45621;BME280;31345;51.522;10.702;2023-05-01T04:32:53;99255.31;;;2.11;100.00
45621;BME280;31345;51.522;10.702;2023-05-01T04:35:20;99248.28;;;2.17;100.00
45621;BME280;31345;51.522;10.702;2023-05-01T04:37:55;99251.25;;;2.34;100.00
45621;BME280;31345;51.522;10.702;2023-05-01T04:40:28;99260.88;;;2.58;100.00
45621;BME280;31345;51.522;10.702;2023-05-01T04:42:55;99254.06;;;2.55;100.00
45621;BME280;31345;51.522;10.702;2023-05-01T04:45:28;99255.25;;;2.14;100.00
45621;BME280;31345;51.522;10.702;2023-05-01T04:47:56;99254.13;;;2.23;100.00
45621;BME280;31345;51.522;10.702;2023-05-01T04:50:24;99253.97;;;2.58;100.00
45621;BME280;31345;51.522;10.702;2023-05-01T04:52:58;99251.75;;;2.74;100.00
45621;BME280;31345;51.522;10.702;2023-05-01T04:55:26;99261.03;;;2.51;100.00
45621;BME280;31345;51.522;10.702;2023-05-01T04:58:13;99256.50;;;2.31;100.00
45621;BME280;31345;51.522;10.702;2023-05-01T05:00:48;99259.78;;;2.36;100.00
45621;BME280;31345;51.522;10.702;2023-05-01T05:03:20;99251.03;;;2.71;100.00
45621;BME280;31345;51.522;10.702;2023-05-01T05:05:48;99245.31;;;2.88;100.00
45621;BME280;31345;51.522;10.702;2023-05-01T05:08:17;99244.94;;;3.00;100.00
45621;BME280;31345;51.522;10.702;2023-05-01T05:10:59;99254.47;;;2.98;100.00
45621;BME280;31345;51.522;10.702;2023-05-01T05:13:50;99254.72;;;2.90;100.00
45621;BME280;31345;51.522;10.702;2023-05-01T05:16:23;99257.59;;;3.08;100.00
45621;BME280;31345;51.522;10.702;2023-05-01T05:18:56;99252.88;;;3.21;100.00
45621;BME280;31345;51.522;10.702;2023-05-01T05:21:32;99255.19;;;3.29;100.00
45621;BME280;31345;51.522;10.702;2023-05-01T05:24:08;99249.84;;;3.35;100.00
45621;BME280;31345;51.522;10.702;2023-05-01T05:26:41;99248.56;;;3.47;100.00
45621;BME280;31345;51.522;10.702;2023-05-01T05:29:14;99241.75;;;3.70;100.00
45621;BME280;31345;51.522;10.702;2023-05-01T05:31:47;99238.00;;;3.79;100.00
45621;BME280;31345;51.522;10.702;2023-05-01T05:34:19;99240.78;;;3.98;100.00
45621;BME280;31345;51.522;10.702;2023-05-01T05:36:47;99236.56;;;4.19;100.00
45621;BME280;31345;51.522;10.702;2023-05-01T05:39:24;99246.84;;;4.45;100.00
45621;BME280;31345;51.522;10.702;2023-05-01T05:41:52;99243.19;;;4.51;100.00
45621;BME280;31345;51.522;10.702;2023-05-01T05:44:25;99230.81;;;4.80;100.00
45621;BME280;31345;51.522;10.702;2023-05-01T05:46:54;99228.84;;;5.07;100.00
45621;BME280;31345;51.522;10.702;2023-05-01T05:49:33;99220.44;;;5.23;100.00
45621;BME280;31345;51.522;10.702;2023-05-01T05:52:06;99230.00;;;5.43;100.00
45621;BME280;31345;51.522;10.702;2023-05-01T05:54:42;99223.31;;;5.58;100.00
45621;BME280;31345;51.522;10.702;2023-05-01T05:57:10;99225.75;;;5.82;100.00
45621;BME280;31345;51.522;10.702;2023-05-01T05:59:48;99229.25;;;6.00;100.00
45621;BME280;31345;51.522;10.702;2023-05-01T06:02:19;99225.06;;;6.17;100.00
45621;BME280;31345;51.522;10.702;2023-05-01T06:04:47;99217.50;;;6.32;100.00
45621;BME280;31345;51.522;10.702;2023-05-01T06:07:23;99222.53;;;6.54;100.00
45621;BME280;31345;51.522;10.702;2023-05-01T06:09:52;99213.16;;;6.69;98.81
45621;BME280;31345;51.522;10.702;2023-05-01T06:12:20;99219.75;;;6.94;98.09
45621;BME280;31345;51.522;10.702;2023-05-01T06:14:52;99213.13;;;7.06;95.56
45621;BME280;31345;51.522;10.702;2023-05-01T06:17:26;99214.44;;;7.15;96.07
45621;BME280;31345;51.522;10.702;2023-05-01T06:19:54;99211.03;;;7.30;95.19
45621;BME280;31345;51.522;10.702;2023-05-01T06:22:22;99201.47;;;7.49;94.86
45621;BME280;31345;51.522;10.702;2023-05-01T06:25:06;99205.31;;;7.59;93.74
45621;BME280;31345;51.522;10.702;2023-05-01T06:27:35;99201.69;;;7.79;92.51
45621;BME280;31345;51.522;10.702;2023-05-01T06:30:03;99199.16;;;7.94;92.42
45621;BME280;31345;51.522;10.702;2023-05-01T06:32:40;99197.41;;;8.11;93.13
45621;BME280;31345;51.522;10.702;2023-05-01T06:35:14;99194.91;;;8.25;92.31
45621;BME280;31345;51.522;10.702;2023-05-01T06:37:42;99188.94;;;8.39;91.28
45621;BME280;31345;51.522;10.702;2023-05-01T06:40:17;99186.91;;;8.60;92.91
45621;BME280;31345;51.522;10.702;2023-05-01T06:42:45;99184.56;;;8.72;90.12
45621;BME280;31345;51.522;10.702;2023-05-01T06:45:12;99185.22;;;8.76;89.39
45621;BME280;31345;51.522;10.702;2023-05-01T06:47:45;99187.03;;;8.90;87.82
45621;BME280;31345;51.522;10.702;2023-05-01T06:50:18;99182.81;;;9.03;84.06
45621;BME280;31345;51.522;10.702;2023-05-01T06:52:45;99172.59;;;9.29;86.08
45621;BME280;31345;51.522;10.702;2023-05-01T06:55:19;99187.03;;;9.35;88.56
45621;BME280;31345;51.522;10.702;2023-05-01T06:57:52;99174.63;;;9.38;83.31
45621;BME280;31345;51.522;10.702;2023-05-01T07:00:25;99170.66;;;9.47;78.45
45621;BME280;31345;51.522;10.702;2023-05-01T07:02:53;99173.47;;;9.59;78.88
45621;BME280;31345;51.522;10.702;2023-05-01T07:05:20;99168.44;;;9.70;76.90
45621;BME280;31345;51.522;10.702;2023-05-01T07:07:53;99172.03;;;9.82;79.02
45621;BME280;31345;51.522;10.702;2023-05-01T07:10:27;99170.81;;;10.02;77.27
45621;BME280;31345;51.522;10.702;2023-05-01T07:12:55;99158.97;;;9.97;73.06
45621;BME280;31345;51.522;10.702;2023-05-01T07:15:28;99165.06;;;9.97;74.84
45621;BME280;31345;51.522;10.702;2023-05-01T07:17:56;99162.63;;;9.94;72.63
45621;BME280;31345;51.522;10.702;2023-05-01T07:20:23;99166.84;;;10.11;75.33
45621;BME280;31345;51.522;10.702;2023-05-01T07:22:56;99164.06;;;10.27;75.49
45621;BME280;31345;51.522;10.702;2023-05-01T07:25:24;99150.00;;;10.58;75.04
45621;BME280;31345;51.522;10.702;2023-05-01T07:27:53;99158.31;;;10.50;73.24
45621;BME280;31345;51.522;10.702;2023-05-01T07:30:23;99154.50;;;10.69;74.24
45621;BME280;31345;51.522;10.702;2023-05-01T07:32:54;99145.34;;;10.89;73.05
45621;BME280;31345;51.522;10.702;2023-05-01T07:35:28;99147.63;;;10.81;70.09
45621;BME280;31345;51.522;10.702;2023-05-01T07:38:00;99139.53;;;10.71;69.36
45621;BME280;31345;51.522;10.702;2023-05-01T07:40:33;99139.56;;;10.84;68.97
45621;BME280;31345;51.522;10.702;2023-05-01T07:43:08;99139.31;;;11.01;73.08
45621;BME280;31345;51.522;10.702;2023-05-01T07:45:53;99145.91;;;11.20;73.15
45621;BME280;31345;51.522;10.702;2023-05-01T07:48:21;99145.59;;;11.25;72.41
45621;BME280;31345;51.522;10.702;2023-05-01T07:50:48;99144.00;;;11.35;69.94
45621;BME280;31345;51.522;10.702;2023-05-01T07:53:21;99137.31;;;11.57;70.96
45621;BME280;31345;51.522;10.702;2023-05-01T07:55:49;99135.59;;;11.69;69.32
45621;BME280;31345;51.522;10.702;2023-05-01T07:58:23;99133.41;;;11.76;69.21
45621;BME280;31345;51.522;10.702;2023-05-01T08:00:51;99133.94;;;11.55;71.42
45621;BME280;31345;51.522;10.702;2023-05-01T08:03:23;99137.09;;;11.60;73.85
45621;BME280;31345;51.522;10.702;2023-05-01T08:05:51;99121.69;;;12.19;72.32
45621;BME280;31345;51.522;10.702;2023-05-01T08:08:18;99115.28;;;12.23;67.85
45621;BME280;31345;51.522;10.702;2023-05-01T08:10:51;99113.31;;;12.63;72.30
45621;BME280;31345;51.522;10.702;2023-05-01T08:13:19;99112.19;;;12.90;68.46
45621;BME280;31345;51.522;10.702;2023-05-01T08:15:48;99107.69;;;13.15;67.13
45621;BME280;31345;51.522;10.702;2023-05-01T08:18:21;99103.28;;;13.27;66.60
45621;BME280;31345;51.522;10.702;2023-05-01T08:20:49;99103.78;;;13.20;65.49
45621;BME280;31345;51.522;10.702;2023-05-01T08:23:21;99106.03;;;13.48;65.84
45621;BME280;31345;51.522;10.702;2023-05-01T08:25:51;99105.34;;;13.57;67.05
45621;BME280;31345;51.522;10.702;2023-05-01T08:28:18;99101.53;;;13.39;62.87
45621;BME280;31345;51.522;10.702;2023-05-01T08:30:53;99103.06;;;13.30;64.83
45621;BME280;31345;51.522;10.702;2023-05-01T08:33:26;99099.25;;;13.45;67.35
45621;BME280;31345;51.522;10.702;2023-05-01T08:35:59;99090.19;;;13.61;65.10
45621;BME280;31345;51.522;10.702;2023-05-01T08:38:32;99087.34;;;13.64;62.78
45621;BME280;31345;51.522;10.702;2023-05-01T08:40:59;99088.97;;;13.54;63.65
45621;BME280;31345;51.522;10.702;2023-05-01T08:43:29;99090.97;;;13.96;63.03
45621;BME280;31345;51.522;10.702;2023-05-01T08:46:05;99084.28;;;14.03;62.43
45621;BME280;31345;51.522;10.702;2023-05-01T08:48:40;99081.75;;;14.01;59.04
45621;BME280;31345;51.522;10.702;2023-05-01T08:51:15;99076.13;;;14.39;61.29
45621;BME280;31345;51.522;10.702;2023-05-01T08:53:51;99074.09;;;14.43;57.30
45621;BME280;31345;51.522;10.702;2023-05-01T08:56:24;99074.22;;;14.41;59.23
45621;BME280;31345;51.522;10.702;2023-05-01T08:58:57;99076.81;;;14.52;60.47
45621;BME280;31345;51.522;10.702;2023-05-01T09:01:32;99071.91;;;14.48;61.40
45621;BME280;31345;51.522;10.702;2023-05-01T09:04:06;99065.56;;;14.72;57.84
45621;BME280;31345;51.522;10.702;2023-05-01T09:06:39;99052.97;;;14.97;57.20
45621;BME280;31345;51.522;10.702;2023-05-01T09:09:06;99061.81;;;15.38;59.64
45621;BME280;31345;51.522;10.702;2023-05-01T09:11:39;99056.34;;;15.71;59.09
45621;BME280;31345;51.522;10.702;2023-05-01T09:14:12;99054.28;;;15.34;55.47
45621;BME280;31345;51.522;10.702;2023-05-01T09:16:41;99048.22;;;15.43;59.19
45621;BME280;31345;51.522;10.702;2023-05-01T09:19:14;99054.44;;;15.42;59.10
45621;BME280;31345;51.522;10.702;2023-05-01T09:21:47;99037.59;;;15.23;54.57
45621;BME280;31345;51.522;10.702;2023-05-01T09:24:21;99045.66;;;15.32;59.46
45621;BME280;31345;51.522;10.702;2023-05-01T09:26:50;99044.09;;;15.19;62.64
45621;BME280;31345;51.522;10.702;2023-05-01T09:29:37;99050.41;;;15.38;59.72
45621;BME280;31345;51.522;10.702;2023-05-01T09:32:15;99043.72;;;15.65;60.38
45621;BME280;31345;51.522;10.702;2023-05-01T09:34:44;99036.09;;;15.72;58.42
45621;BME280;31345;51.522;10.702;2023-05-01T09:37:12;99031.84;;;16.00;58.72
45621;BME280;31345;51.522;10.702;2023-05-01T09:39:41;99029.34;;;16.08;58.65
45621;BME280;31345;51.522;10.702;2023-05-01T09:42:09;99023.34;;;16.26;56.78
45621;BME280;31345;51.522;10.702;2023-05-01T09:44:42;99025.34;;;16.44;58.43
45621;BME280;31345;51.522;10.702;2023-05-01T09:47:20;99023.66;;;16.43;56.75
45621;BME280;31345;51.522;10.702;2023-05-01T09:49:49;99019.91;;;16.36;57.42
45621;BME280;31345;51.522;10.702;2023-05-01T09:52:21;99018.94;;;16.17;59.48
45621;BME280;31345;51.522;10.702;2023-05-01T09:55:13;99014.78;;;16.24;56.97
45621;BME280;31345;51.522;10.702;2023-05-01T09:57:46;99011.03;;;16.27;55.34
45621;BME280;31345;51.522;10.702;2023-05-01T10:00:15;99011.94;;;16.65;58.40
45621;BME280;31345;51.522;10.702;2023-05-01T10:02:52;99004.88;;;16.66;59.62
45621;BME280;31345;51.522;10.702;2023-05-01T10:05:25;99006.88;;;16.92;55.97
45621;BME280;31345;51.522;10.702;2023-05-01T10:07:59;98995.38;;;17.21;58.53
45621;BME280;31345;51.522;10.702;2023-05-01T10:10:28;98992.09;;;16.99;53.50
45621;BME280;31345;51.522;10.702;2023-05-01T10:13:12;98993.91;;;17.08;54.97
45621;BME280;31345;51.522;10.702;2023-05-01T10:15:45;99001.97;;;17.07;55.20
45621;BME280;31345;51.522;10.702;2023-05-01T10:18:19;98993.94;;;17.27;53.24
45621;BME280;31345;51.522;10.702;2023-05-01T10:20:53;98988.94;;;17.23;56.51
45621;BME280;31345;51.522;10.702;2023-05-01T10:23:26;98983.97;;;17.20;55.01
45621;BME280;31345;51.522;10.702;2023-05-01T10:26:00;98979.59;;;17.29;54.52
45621;BME280;31345;51.522;10.702;2023-05-01T10:28:34;98979.47;;;17.31;53.41
45621;BME280;31345;51.522;10.702;2023-05-01T10:31:02;98980.31;;;17.21;54.85
45621;BME280;31345;51.522;10.702;2023-05-01T10:33:31;98980.88;;;17.25;56.70
45621;BME280;31345;51.522;10.702;2023-05-01T10:35:59;98980.81;;;17.45;56.55
45621;BME280;31345;51.522;10.702;2023-05-01T10:38:33;98977.50;;;17.33;52.93
45621;BME280;31345;51.522;10.702;2023-05-01T10:41:06;98979.56;;;17.85;56.24
45621;BME280;31345;51.522;10.702;2023-05-01T10:43:40;98967.16;;;17.68;51.25
45621;BME280;31345;51.522;10.702;2023-05-01T10:46:26;98970.78;;;17.39;50.01
45621;BME280;31345;51.522;10.702;2023-05-01T10:48:56;98968.50;;;17.54;53.12
45621;BME280;31345;51.522;10.702;2023-05-01T10:51:29;98963.91;;;17.56;52.94
45621;BME280;31345;51.522;10.702;2023-05-01T10:54:22;98955.06;;;17.65;54.08
45621;BME280;31345;51.522;10.702;2023-05-01T10:56:55;98953.78;;;17.87;56.83
45621;BME280;31345;51.522;10.702;2023-05-01T10:59:25;98953.13;;;17.85;50.65
45621;BME280;31345;51.522;10.702;2023-05-01T11:02:21;98948.81;;;17.66;51.44
45621;BME280;31345;51.522;10.702;2023-05-01T11:04:58;98942.97;;;17.62;49.57
45621;BME280;31345;51.522;10.702;2023-05-01T11:07:32;98946.59;;;17.98;54.89
45621;BME280;31345;51.522;10.702;2023-05-01T11:10:24;98940.47;;;17.97;55.35
45621;BME280;31345;51.522;10.702;2023-05-01T11:12:57;98940.63;;;17.96;54.40
45621;BME280;31345;51.522;10.702;2023-05-01T11:15:31;98945.88;;;18.14;56.17
45621;BME280;31345;51.522;10.702;2023-05-01T11:18:04;98945.31;;;18.02;56.78
45621;BME280;31345;51.522;10.702;2023-05-01T11:20:47;98931.88;;;17.95;53.88
45621;BME280;31345;51.522;10.702;2023-05-01T11:23:21;98929.75;;;17.99;55.19
45621;BME280;31345;51.522;10.702;2023-05-01T11:26:02;98931.78;;;18.05;56.66
45621;BME280;31345;51.522;10.702;2023-05-01T11:28:39;98927.94;;;17.99;54.58
45621;BME280;31345;51.522;10.702;2023-05-01T11:31:16;98922.50;;;18.01;50.95
45621;BME280;31345;51.522;10.702;2023-05-01T11:33:44;98914.47;;;18.11;51.54
45621;BME280;31345;51.522;10.702;2023-05-01T11:36:18;98922.28;;;17.94;51.02
45621;BME280;31345;51.522;10.702;2023-05-01T11:38:52;98908.88;;;17.96;55.51
45621;BME280;31345;51.522;10.702;2023-05-01T11:41:27;98912.06;;;17.99;54.46
45621;BME280;31345;51.522;10.702;2023-05-01T11:44:00;98906.69;;;18.09;50.74
45621;BME280;31345;51.522;10.702;2023-05-01T11:46:33;98905.44;;;18.22;55.95
45621;BME280;31345;51.522;10.702;2023-05-01T11:49:05;98903.34;;;18.07;51.20
45621;BME280;31345;51.522;10.702;2023-05-01T11:51:40;98902.28;;;18.18;55.72
45621;BME280;31345;51.522;10.702;2023-05-01T11:54:12;98902.38;;;18.08;55.82
45621;BME280;31345;51.522;10.702;2023-05-01T11:56:45;98898.00;;;18.25;56.99
45621;BME280;31345;51.522;10.702;2023-05-01T11:59:14;98897.75;;;18.37;54.42
45621;BME280;31345;51.522;10.702;2023-05-01T12:01:47;98898.16;;;18.24;56.24
45621;BME280;31345;51.522;10.702;2023-05-01T12:04:25;98888.72;;;17.95;51.30
45621;BME280;31345;51.522;10.702;2023-05-01T12:07:00;98899.88;;;18.07;55.78
45621;BME280;31345;51.522;10.702;2023-05-01T12:09:32;98895.47;;;18.16;55.65
45621;BME280;31345;51.522;10.702;2023-05-01T12:12:05;98893.31;;;18.37;51.09
45621;BME280;31345;51.522;10.702;2023-05-01T12:14:33;98898.19;;;18.50;53.74
45621;BME280;31345;51.522;10.702;2023-05-01T12:17:01;98886.75;;;18.85;48.33
45621;BME280;31345;51.522;10.702;2023-05-01T12:19:34;98888.81;;;18.56;55.15
45621;BME280;31345;51.522;10.702;2023-05-01T12:22:20;98885.63;;;18.96;53.01
45621;BME280;31345;51.522;10.702;2023-05-01T12:24:53;98891.78;;;18.96;51.72
45621;BME280;31345;51.522;10.702;2023-05-01T12:27:26;98879.25;;;19.23;51.28
45621;BME280;31345;51.522;10.702;2023-05-01T12:29:53;98881.59;;;19.26;50.90
45621;BME280;31345;51.522;10.702;2023-05-01T12:32:30;98889.31;;;19.11;54.02
45621;BME280;31345;51.522;10.702;2023-05-01T12:35:12;98890.31;;;19.10;49.42
45621;BME280;31345;51.522;10.702;2023-05-01T12:37:47;98888.97;;;18.98;45.43
45621;BME280;31345;51.522;10.702;2023-05-01T12:40:15;98885.13;;;18.92;49.38
45621;BME280;31345;51.522;10.702;2023-05-01T12:42:53;98891.75;;;18.88;54.90
45621;BME280;31345;51.522;10.702;2023-05-01T12:45:21;98880.31;;;18.87;48.27
45621;BME280;31345;51.522;10.702;2023-05-01T12:47:49;98878.13;;;18.48;50.63
45621;BME280;31345;51.522;10.702;2023-05-01T12:50:17;98879.06;;;18.38;48.93
45621;BME280;31345;51.522;10.702;2023-05-01T12:52:53;98879.81;;;18.49;53.23
45621;BME280;31345;51.522;10.702;2023-05-01T12:55:26;98876.31;;;18.48;51.35
45621;BME280;31345;51.522;10.702;2023-05-01T12:57:53;98875.63;;;18.73;54.44
45621;BME280;31345;51.522;10.702;2023-05-01T13:00:26;98867.28;;;18.59;48.34
45621;BME280;31345;51.522;10.702;2023-05-01T13:03:02;98873.72;;;18.57;55.71
45621;BME280;31345;51.522;10.702;2023-05-01T13:05:35;98868.28;;;18.58;51.42
45621;BME280;31345;51.522;10.702;2023-05-01T13:08:09;98868.50;;;18.73;51.17
45621;BME280;31345;51.522;10.702;2023-05-01T13:10:42;98874.66;;;18.82;52.15
45621;BME280;31345;51.522;10.702;2023-05-01T13:13:22;98875.25;;;18.68;56.88
45621;BME280;31345;51.522;10.702;2023-05-01T13:16:03;98860.34;;;18.58;52.18
45621;BME280;31345;51.522;10.702;2023-05-01T13:18:32;98855.03;;;18.58;49.49
45621;BME280;31345;51.522;10.702;2023-05-01T13:21:06;98849.78;;;18.67;52.03